Terminal Aerodrome Forecast
Issued by NWS

Current Version | Previous Version | Text Only | Print | Product List | Glossary On
Versions: 1 2 3 4 5 6 7 8 9 10 11 12 13 14 15 16
644
FTUS46 KLOX 081748
TAFSBA
TAF
KSBA 081748Z 0818/0918 14006KT P6SM BKN050
     FM082100 20008KT P6SM SCT025 BKN040
     FM090200 VRB03KT P6SM VCSH BKN025 OVC040
     FM091000 VRB03KT P6SM -SHRA OVC025
     FM091500 VRB03KT P6SM BKN040=

USA.gov is the U.S. government's official web portal to all federal, state and local government web resources and services.